sensor_id;sensor_type;location;lat;lon;timestamp;P1;durP1;ratioP1;P2;durP2;ratioP2
73599;SDS011;61877;48.246;9.220;2023-02-01T00:00:15;10.30;;;4.70;;
73599;SDS011;61877;48.246;9.220;2023-02-01T00:02:41;9.65;;;4.25;;
73599;SDS011;61877;48.246;9.220;2023-02-01T00:05:07;8.43;;;3.97;;
73599;SDS011;61877;48.246;9.220;2023-02-01T00:07:32;9.48;;;4.47;;
73599;SDS011;61877;48.246;9.220;2023-02-01T00:09:59;9.60;;;4.73;;
73599;SDS011;61877;48.246;9.220;2023-02-01T00:12:24;9.10;;;4.40;;
73599;SDS011;61877;48.246;9.220;2023-02-01T00:14:50;9.43;;;4.27;;
73599;SDS011;61877;48.246;9.220;2023-02-01T00:17:15;9.85;;;4.63;;
73599;SDS011;61877;48.246;9.220;2023-02-01T00:19:40;9.87;;;4.60;;
73599;SDS011;61877;48.246;9.220;2023-02-01T00:22:06;9.80;;;4.63;;
73599;SDS011;61877;48.246;9.220;2023-02-01T00:24:31;8.80;;;4.27;;
73599;SDS011;61877;48.246;9.220;2023-02-01T00:26:58;9.43;;;4.30;;
73599;SDS011;61877;48.246;9.220;2023-02-01T00:29:23;9.27;;;4.20;;
73599;SDS011;61877;48.246;9.220;2023-02-01T00:31:49;9.10;;;4.50;;
73599;SDS011;61877;48.246;9.220;2023-02-01T00:34:15;8.68;;;4.50;;
73599;SDS011;61877;48.246;9.220;2023-02-01T00:36:41;9.13;;;4.28;;
73599;SDS011;61877;48.246;9.220;2023-02-01T00:39:08;10.23;;;5.28;;
73599;SDS011;61877;48.246;9.220;2023-02-01T00:41:34;9.90;;;4.90;;
73599;SDS011;61877;48.246;9.220;2023-02-01T00:44:01;10.57;;;5.67;;
73599;SDS011;61877;48.246;9.220;2023-02-01T00:46:27;11.00;;;5.78;;
73599;SDS011;61877;48.246;9.220;2023-02-01T00:48:53;10.73;;;5.10;;
73599;SDS011;61877;48.246;9.220;2023-02-01T00:51:20;9.60;;;4.50;;
73599;SDS011;61877;48.246;9.220;2023-02-01T00:53:46;8.93;;;4.10;;
73599;SDS011;61877;48.246;9.220;2023-02-01T00:56:12;9.40;;;4.20;;
73599;SDS011;61877;48.246;9.220;2023-02-01T00:58:38;8.57;;;4.10;;
73599;SDS011;61877;48.246;9.220;2023-02-01T01:01:05;9.33;;;4.30;;
73599;SDS011;61877;48.246;9.220;2023-02-01T01:03:32;8.68;;;4.53;;
73599;SDS011;61877;48.246;9.220;2023-02-01T01:06:00;10.27;;;5.05;;
73599;SDS011;61877;48.246;9.220;2023-02-01T01:08:28;10.55;;;5.03;;
73599;SDS011;61877;48.246;9.220;2023-02-01T01:10:53;9.90;;;4.43;;
73599;SDS011;61877;48.246;9.220;2023-02-01T01:13:19;9.30;;;5.10;;
73599;SDS011;61877;48.246;9.220;2023-02-01T01:15:44;9.38;;;4.78;;
73599;SDS011;61877;48.246;9.220;2023-02-01T01:18:11;7.97;;;3.97;;
73599;SDS011;61877;48.246;9.220;2023-02-01T01:20:37;7.90;;;4.00;;
73599;SDS011;61877;48.246;9.220;2023-02-01T01:23:05;8.13;;;3.83;;
73599;SDS011;61877;48.246;9.220;2023-02-01T01:25:31;7.05;;;3.70;;
73599;SDS011;61877;48.246;9.220;2023-02-01T01:27:57;7.00;;;3.50;;
73599;SDS011;61877;48.246;9.220;2023-02-01T01:30:22;7.45;;;3.70;;
73599;SDS011;61877;48.246;9.220;2023-02-01T01:32:48;7.97;;;4.00;;
73599;SDS011;61877;48.246;9.220;2023-02-01T01:35:14;9.13;;;3.43;;
73599;SDS011;61877;48.246;9.220;2023-02-01T01:37:40;6.90;;;3.33;;
73599;SDS011;61877;48.246;9.220;2023-02-01T01:40:06;7.40;;;3.23;;
73599;SDS011;61877;48.246;9.220;2023-02-01T01:42:36;6.95;;;3.10;;
73599;SDS011;61877;48.246;9.220;2023-02-01T01:45:03;6.63;;;3.15;;
73599;SDS011;61877;48.246;9.220;2023-02-01T01:47:31;6.90;;;3.25;;
73599;SDS011;61877;48.246;9.220;2023-02-01T01:50:02;8.13;;;3.10;;
73599;SDS011;61877;48.246;9.220;2023-02-01T01:52:30;6.22;;;3.10;;
73599;SDS011;61877;48.246;9.220;2023-02-01T01:54:55;7.47;;;3.25;;
73599;SDS011;61877;48.246;9.220;2023-02-01T01:57:24;6.68;;;3.30;;
73599;SDS011;61877;48.246;9.220;2023-02-01T01:59:53;7.05;;;3.33;;
73599;SDS011;61877;48.246;9.220;2023-02-01T02:02:22;6.23;;;2.80;;
73599;SDS011;61877;48.246;9.220;2023-02-01T02:04:47;6.25;;;2.75;;
73599;SDS011;61877;48.246;9.220;2023-02-01T02:07:14;6.90;;;2.80;;
73599;SDS011;61877;48.246;9.220;2023-02-01T02:09:43;6.43;;;2.83;;
73599;SDS011;61877;48.246;9.220;2023-02-01T02:12:09;6.65;;;3.10;;
73599;SDS011;61877;48.246;9.220;2023-02-01T02:14:34;6.40;;;3.00;;
73599;SDS011;61877;48.246;9.220;2023-02-01T02:17:11;6.18;;;2.92;;
73599;SDS011;61877;48.246;9.220;2023-02-01T02:20:13;6.15;;;3.15;;
73599;SDS011;61877;48.246;9.220;2023-02-01T02:23:03;5.68;;;2.60;;
73599;SDS011;61877;48.246;9.220;2023-02-01T02:32:21;6.15;;;2.70;;
73599;SDS011;61877;48.246;9.220;2023-02-01T02:35:11;6.22;;;2.97;;
73599;SDS011;61877;48.246;9.220;2023-02-01T02:37:50;5.85;;;2.40;;
73599;SDS011;61877;48.246;9.220;2023-02-01T02:40:25;5.60;;;2.50;;
73599;SDS011;61877;48.246;9.220;2023-02-01T02:42:58;5.63;;;2.83;;
73599;SDS011;61877;48.246;9.220;2023-02-01T02:45:33;5.90;;;2.38;;
73599;SDS011;61877;48.246;9.220;2023-02-01T02:48:06;5.85;;;2.50;;
73599;SDS011;61877;48.246;9.220;2023-02-01T02:50:40;5.57;;;2.42;;
73599;SDS011;61877;48.246;9.220;2023-02-01T02:53:08;6.20;;;2.90;;
73599;SDS011;61877;48.246;9.220;2023-02-01T02:55:37;5.50;;;2.20;;
73599;SDS011;61877;48.246;9.220;2023-02-01T02:58:04;5.90;;;2.78;;
73599;SDS011;61877;48.246;9.220;2023-02-01T03:00:32;5.53;;;2.50;;
73599;SDS011;61877;48.246;9.220;2023-02-01T03:02:59;5.82;;;2.70;;
73599;SDS011;61877;48.246;9.220;2023-02-01T03:05:25;5.45;;;2.50;;
73599;SDS011;61877;48.246;9.220;2023-02-01T03:08:00;6.13;;;2.30;;
73599;SDS011;61877;48.246;9.220;2023-02-01T03:10:30;6.05;;;2.70;;
73599;SDS011;61877;48.246;9.220;2023-02-01T03:13:02;5.63;;;2.60;;
73599;SDS011;61877;48.246;9.220;2023-02-01T03:15:32;5.70;;;2.60;;
73599;SDS011;61877;48.246;9.220;2023-02-01T03:18:02;6.47;;;2.80;;
73599;SDS011;61877;48.246;9.220;2023-02-01T03:20:31;5.97;;;2.50;;
73599;SDS011;61877;48.246;9.220;2023-02-01T03:22:58;5.53;;;2.53;;
73599;SDS011;61877;48.246;9.220;2023-02-01T03:25:25;5.70;;;2.63;;
73599;SDS011;61877;48.246;9.220;2023-02-01T03:27:57;5.90;;;2.57;;
73599;SDS011;61877;48.246;9.220;2023-02-01T03:30:26;5.70;;;2.60;;
73599;SDS011;61877;48.246;9.220;2023-02-01T03:32:55;5.68;;;2.50;;
73599;SDS011;61877;48.246;9.220;2023-02-01T03:35:23;5.68;;;2.60;;
73599;SDS011;61877;48.246;9.220;2023-02-01T03:37:52;6.18;;;2.63;;
73599;SDS011;61877;48.246;9.220;2023-02-01T03:40:23;5.80;;;2.50;;
73599;SDS011;61877;48.246;9.220;2023-02-01T03:42:52;6.82;;;2.90;;
73599;SDS011;61877;48.246;9.220;2023-02-01T03:45:21;6.47;;;2.85;;
73599;SDS011;61877;48.246;9.220;2023-02-01T03:47:52;6.78;;;3.00;;
73599;SDS011;61877;48.246;9.220;2023-02-01T03:50:20;9.45;;;4.10;;
73599;SDS011;61877;48.246;9.220;2023-02-01T03:52:48;9.33;;;3.90;;
73599;SDS011;61877;48.246;9.220;2023-02-01T03:55:18;7.88;;;3.85;;
73599;SDS011;61877;48.246;9.220;2023-02-01T03:57:50;8.27;;;4.20;;
73599;SDS011;61877;48.246;9.220;2023-02-01T04:00:21;8.20;;;3.70;;
73599;SDS011;61877;48.246;9.220;2023-02-01T04:02:47;7.57;;;3.60;;
73599;SDS011;61877;48.246;9.220;2023-02-01T04:05:13;7.60;;;3.60;;
73599;SDS011;61877;48.246;9.220;2023-02-01T04:07:38;7.53;;;3.50;;
73599;SDS011;61877;48.246;9.220;2023-02-01T04:10:04;8.07;;;3.90;;
73599;SDS011;61877;48.246;9.220;2023-02-01T04:12:30;8.10;;;4.07;;
73599;SDS011;61877;48.246;9.220;2023-02-01T04:14:57;8.30;;;4.10;;
73599;SDS011;61877;48.246;9.220;2023-02-01T04:17:23;8.30;;;3.75;;
73599;SDS011;61877;48.246;9.220;2023-02-01T04:19:48;7.37;;;3.87;;
73599;SDS011;61877;48.246;9.220;2023-02-01T04:22:13;8.23;;;4.10;;
73599;SDS011;61877;48.246;9.220;2023-02-01T04:24:39;7.73;;;4.00;;
73599;SDS011;61877;48.246;9.220;2023-02-01T04:27:04;8.20;;;3.92;;
73599;SDS011;61877;48.246;9.220;2023-02-01T04:29:30;7.97;;;4.00;;
73599;SDS011;61877;48.246;9.220;2023-02-01T04:31:56;9.17;;;4.37;;
73599;SDS011;61877;48.246;9.220;2023-02-01T04:34:22;8.43;;;4.07;;
73599;SDS011;61877;48.246;9.220;2023-02-01T04:36:47;9.60;;;4.27;;
73599;SDS011;61877;48.246;9.220;2023-02-01T04:39:13;10.00;;;4.63;;
73599;SDS011;61877;48.246;9.220;2023-02-01T04:41:39;8.70;;;4.53;;
73599;SDS011;61877;48.246;9.220;2023-02-01T04:44:04;8.80;;;4.30;;
73599;SDS011;61877;48.246;9.220;2023-02-01T04:46:30;10.03;;;4.60;;
73599;SDS011;61877;48.246;9.220;2023-02-01T04:48:56;8.00;;;4.10;;
73599;SDS011;61877;48.246;9.220;2023-02-01T04:51:22;8.90;;;4.28;;
73599;SDS011;61877;48.246;9.220;2023-02-01T04:53:47;8.10;;;4.03;;
73599;SDS011;61877;48.246;9.220;2023-02-01T04:56:13;8.48;;;4.10;;
73599;SDS011;61877;48.246;9.220;2023-02-01T04:58:38;9.57;;;4.60;;
73599;SDS011;61877;48.246;9.220;2023-02-01T05:01:04;9.50;;;4.57;;
73599;SDS011;61877;48.246;9.220;2023-02-01T05:03:31;8.05;;;4.22;;
73599;SDS011;61877;48.246;9.220;2023-02-01T05:05:58;7.65;;;4.00;;
73599;SDS011;61877;48.246;9.220;2023-02-01T05:08:24;8.30;;;3.60;;
73599;SDS011;61877;48.246;9.220;2023-02-01T05:10:49;8.35;;;4.18;;
73599;SDS011;61877;48.246;9.220;2023-02-01T05:13:14;8.03;;;3.90;;
73599;SDS011;61877;48.246;9.220;2023-02-01T05:15:40;6.83;;;3.43;;
73599;SDS011;61877;48.246;9.220;2023-02-01T05:18:05;8.63;;;3.30;;
73599;SDS011;61877;48.246;9.220;2023-02-01T05:20:31;6.38;;;2.92;;
73599;SDS011;61877;48.246;9.220;2023-02-01T05:22:57;6.80;;;3.30;;
73599;SDS011;61877;48.246;9.220;2023-02-01T05:25:23;6.38;;;2.90;;
73599;SDS011;61877;48.246;9.220;2023-02-01T05:27:48;7.23;;;3.03;;
73599;SDS011;61877;48.246;9.220;2023-02-01T05:30:14;7.40;;;3.50;;
73599;SDS011;61877;48.246;9.220;2023-02-01T05:32:39;7.32;;;3.38;;
73599;SDS011;61877;48.246;9.220;2023-02-01T05:35:05;8.10;;;3.50;;
73599;SDS011;61877;48.246;9.220;2023-02-01T05:37:31;8.50;;;4.03;;
73599;SDS011;61877;48.246;9.220;2023-02-01T05:40:03;8.57;;;3.93;;
73599;SDS011;61877;48.246;9.220;2023-02-01T05:42:29;8.18;;;4.05;;
73599;SDS011;61877;48.246;9.220;2023-02-01T05:44:54;8.67;;;4.03;;
73599;SDS011;61877;48.246;9.220;2023-02-01T05:47:19;10.70;;;5.13;;
73599;SDS011;61877;48.246;9.220;2023-02-01T05:49:45;7.90;;;3.93;;
73599;SDS011;61877;48.246;9.220;2023-02-01T05:52:10;10.27;;;4.90;;
73599;SDS011;61877;48.246;9.220;2023-02-01T05:54:36;6.57;;;2.90;;
73599;SDS011;61877;48.246;9.220;2023-02-01T05:57:02;6.40;;;3.03;;
73599;SDS011;61877;48.246;9.220;2023-02-01T05:59:28;7.85;;;3.70;;
73599;SDS011;61877;48.246;9.220;2023-02-01T06:01:53;9.87;;;4.30;;
73599;SDS011;61877;48.246;9.220;2023-02-01T06:04:19;7.40;;;3.50;;
73599;SDS011;61877;48.246;9.220;2023-02-01T06:06:44;6.70;;;3.20;;
73599;SDS011;61877;48.246;9.220;2023-02-01T06:09:09;7.57;;;2.75;;
73599;SDS011;61877;48.246;9.220;2023-02-01T06:11:35;6.13;;;3.13;;
73599;SDS011;61877;48.246;9.220;2023-02-01T06:14:02;6.10;;;2.77;;
73599;SDS011;61877;48.246;9.220;2023-02-01T06:16:27;5.90;;;2.70;;
73599;SDS011;61877;48.246;9.220;2023-02-01T06:18:53;6.00;;;3.00;;
73599;SDS011;61877;48.246;9.220;2023-02-01T06:21:18;7.00;;;3.30;;
73599;SDS011;61877;48.246;9.220;2023-02-01T06:23:44;8.03;;;3.63;;
73599;SDS011;61877;48.246;9.220;2023-02-01T06:26:09;7.03;;;3.30;;
73599;SDS011;61877;48.246;9.220;2023-02-01T06:28:35;7.40;;;3.25;;
73599;SDS011;61877;48.246;9.220;2023-02-01T06:31:04;6.20;;;2.60;;
73599;SDS011;61877;48.246;9.220;2023-02-01T06:33:30;6.20;;;3.15;;
73599;SDS011;61877;48.246;9.220;2023-02-01T06:35:56;6.60;;;2.97;;
73599;SDS011;61877;48.246;9.220;2023-02-01T06:38:22;5.90;;;2.70;;
73599;SDS011;61877;48.246;9.220;2023-02-01T06:40:51;10.23;;;4.77;;
73599;SDS011;61877;48.246;9.220;2023-02-01T06:43:17;8.45;;;3.97;;
73599;SDS011;61877;48.246;9.220;2023-02-01T06:45:43;6.40;;;2.97;;
73599;SDS011;61877;48.246;9.220;2023-02-01T06:48:09;6.70;;;3.33;;
73599;SDS011;61877;48.246;9.220;2023-02-01T06:50:35;6.80;;;3.40;;
73599;SDS011;61877;48.246;9.220;2023-02-01T06:53:00;7.23;;;3.73;;
73599;SDS011;61877;48.246;9.220;2023-02-01T06:55:26;6.55;;;2.75;;
73599;SDS011;61877;48.246;9.220;2023-02-01T06:57:54;6.43;;;2.80;;
73599;SDS011;61877;48.246;9.220;2023-02-01T07:00:21;7.63;;;3.20;;
73599;SDS011;61877;48.246;9.220;2023-02-01T07:02:47;7.97;;;3.05;;
73599;SDS011;61877;48.246;9.220;2023-02-01T07:05:13;6.40;;;2.90;;
73599;SDS011;61877;48.246;9.220;2023-02-01T07:07:39;6.57;;;3.30;;
73599;SDS011;61877;48.246;9.220;2023-02-01T07:10:05;7.43;;;2.87;;
73599;SDS011;61877;48.246;9.220;2023-02-01T07:12:31;7.97;;;3.38;;
73599;SDS011;61877;48.246;9.220;2023-02-01T07:14:56;7.60;;;4.30;;
73599;SDS011;61877;48.246;9.220;2023-02-01T07:17:22;11.63;;;4.03;;
73599;SDS011;61877;48.246;9.220;2023-02-01T07:19:53;7.20;;;3.03;;
73599;SDS011;61877;48.246;9.220;2023-02-01T07:25:28;6.80;;;2.90;;
73599;SDS011;61877;48.246;9.220;2023-02-01T07:27:54;7.00;;;3.73;;
73599;SDS011;61877;48.246;9.220;2023-02-01T07:30:20;6.10;;;2.70;;
73599;SDS011;61877;48.246;9.220;2023-02-01T07:45:49;7.00;;;3.08;;
73599;SDS011;61877;48.246;9.220;2023-02-01T07:48:15;7.27;;;3.60;;
73599;SDS011;61877;48.246;9.220;2023-02-01T07:50:41;6.32;;;2.65;;
73599;SDS011;61877;48.246;9.220;2023-02-01T07:53:06;8.00;;;3.03;;
73599;SDS011;61877;48.246;9.220;2023-02-01T07:55:32;6.47;;;2.93;;
73599;SDS011;61877;48.246;9.220;2023-02-01T07:57:57;6.70;;;2.80;;
73599;SDS011;61877;48.246;9.220;2023-02-01T08:00:23;6.70;;;2.78;;
73599;SDS011;61877;48.246;9.220;2023-02-01T08:02:49;7.80;;;3.33;;
73599;SDS011;61877;48.246;9.220;2023-02-01T08:05:15;7.28;;;3.10;;
73599;SDS011;61877;48.246;9.220;2023-02-01T08:07:40;6.77;;;3.23;;
73599;SDS011;61877;48.246;9.220;2023-02-01T08:10:06;11.13;;;5.67;;
73599;SDS011;61877;48.246;9.220;2023-02-01T08:12:32;8.77;;;3.97;;
73599;SDS011;61877;48.246;9.220;2023-02-01T08:14:57;8.40;;;4.07;;
73599;SDS011;61877;48.246;9.220;2023-02-01T08:17:23;10.37;;;5.10;;
73599;SDS011;61877;48.246;9.220;2023-02-01T08:19:49;8.93;;;4.20;;
73599;SDS011;61877;48.246;9.220;2023-02-01T08:22:15;8.30;;;3.83;;
73599;SDS011;61877;48.246;9.220;2023-02-01T08:24:40;7.40;;;4.20;;
73599;SDS011;61877;48.246;9.220;2023-02-01T08:27:06;6.97;;;3.30;;
73599;SDS011;61877;48.246;9.220;2023-02-01T08:29:31;7.13;;;3.80;;
73599;SDS011;61877;48.246;9.220;2023-02-01T08:31:56;8.15;;;3.88;;
73599;SDS011;61877;48.246;9.220;2023-02-01T08:34:22;8.20;;;3.83;;
73599;SDS011;61877;48.246;9.220;2023-02-01T08:36:49;7.87;;;4.00;;
73599;SDS011;61877;48.246;9.220;2023-02-01T08:39:14;8.27;;;4.13;;
73599;SDS011;61877;48.246;9.220;2023-02-01T08:41:40;7.53;;;3.90;;
73599;SDS011;61877;48.246;9.220;2023-02-01T08:44:05;7.60;;;3.95;;
73599;SDS011;61877;48.246;9.220;2023-02-01T08:46:30;8.57;;;4.60;;
73599;SDS011;61877;48.246;9.220;2023-02-01T08:48:56;7.93;;;3.67;;
73599;SDS011;61877;48.246;9.220;2023-02-01T08:51:22;7.53;;;3.40;;
73599;SDS011;61877;48.246;9.220;2023-02-01T08:53:49;7.82;;;3.90;;
73599;SDS011;61877;48.246;9.220;2023-02-01T08:56:15;7.20;;;3.40;;
73599;SDS011;61877;48.246;9.220;2023-02-01T08:58:41;7.50;;;3.30;;
73599;SDS011;61877;48.246;9.220;2023-02-01T09:01:07;7.47;;;4.30;;
73599;SDS011;61877;48.246;9.220;2023-02-01T09:03:34;8.93;;;3.60;;
73599;SDS011;61877;48.246;9.220;2023-02-01T09:06:00;7.00;;;2.80;;
73599;SDS011;61877;48.246;9.220;2023-02-01T09:08:25;7.03;;;3.00;;
73599;SDS011;61877;48.246;9.220;2023-02-01T09:10:52;6.53;;;3.07;;
73599;SDS011;61877;48.246;9.220;2023-02-01T09:13:18;7.70;;;3.55;;
73599;SDS011;61877;48.246;9.220;2023-02-01T09:15:43;7.37;;;3.30;;
73599;SDS011;61877;48.246;9.220;2023-02-01T09:18:09;8.20;;;3.08;;
73599;SDS011;61877;48.246;9.220;2023-02-01T09:20:34;7.20;;;2.80;;
73599;SDS011;61877;48.246;9.220;2023-02-01T09:23:01;6.90;;;3.33;;
73599;SDS011;61877;48.246;9.220;2023-02-01T09:25:26;9.93;;;4.80;;
73599;SDS011;61877;48.246;9.220;2023-02-01T09:27:53;7.53;;;3.70;;
73599;SDS011;61877;48.246;9.220;2023-02-01T09:30:19;6.18;;;2.95;;
73599;SDS011;61877;48.246;9.220;2023-02-01T09:32:44;8.10;;;3.40;;
73599;SDS011;61877;48.246;9.220;2023-02-01T09:35:10;6.88;;;2.90;;
73599;SDS011;61877;48.246;9.220;2023-02-01T09:37:35;9.43;;;3.60;;
73599;SDS011;61877;48.246;9.220;2023-02-01T09:40:00;7.17;;;3.23;;
73599;SDS011;61877;48.246;9.220;2023-02-01T09:42:32;8.20;;;2.90;;
73599;SDS011;61877;48.246;9.220;2023-02-01T09:45:13;7.47;;;3.70;;
73599;SDS011;61877;48.246;9.220;2023-02-01T09:47:46;8.48;;;3.00;;
73599;SDS011;61877;48.246;9.220;2023-02-01T09:50:17;8.77;;;2.92;;
73599;SDS011;61877;48.246;9.220;2023-02-01T09:52:46;9.40;;;3.10;;
73599;SDS011;61877;48.246;9.220;2023-02-01T09:55:16;8.68;;;3.47;;
73599;SDS011;61877;48.246;9.220;2023-02-01T09:57:45;8.82;;;3.50;;
73599;SDS011;61877;48.246;9.220;2023-02-01T10:00:19;9.35;;;3.95;;
73599;SDS011;61877;48.246;9.220;2023-02-01T10:02:49;9.23;;;3.10;;
73599;SDS011;61877;48.246;9.220;2023-02-01T10:05:16;7.80;;;3.43;;
73599;SDS011;61877;48.246;9.220;2023-02-01T10:07:53;8.70;;;3.50;;
73599;SDS011;61877;48.246;9.220;2023-02-01T10:10:27;7.97;;;3.78;;
73599;SDS011;61877;48.246;9.220;2023-02-01T10:13:01;9.27;;;3.70;;
73599;SDS011;61877;48.246;9.220;2023-02-01T10:15:42;8.00;;;3.60;;
73599;SDS011;61877;48.246;9.220;2023-02-01T10:18:18;8.50;;;4.30;;
73599;SDS011;61877;48.246;9.220;2023-02-01T10:21:01;10.02;;;3.35;;
73599;SDS011;61877;48.246;9.220;2023-02-01T10:23:37;10.15;;;3.67;;
73599;SDS011;61877;48.246;9.220;2023-02-01T10:26:17;10.05;;;3.80;;
73599;SDS011;61877;48.246;9.220;2023-02-01T10:28:44;9.23;;;3.67;;
73599;SDS011;61877;48.246;9.220;2023-02-01T10:31:12;9.80;;;4.07;;
73599;SDS011;61877;48.246;9.220;2023-02-01T10:33:39;8.63;;;4.25;;
73599;SDS011;61877;48.246;9.220;2023-02-01T10:36:10;11.23;;;4.18;;
73599;SDS011;61877;48.246;9.220;2023-02-01T10:38:40;10.38;;;3.80;;
73599;SDS011;61877;48.246;9.220;2023-02-01T10:41:08;7.93;;;4.07;;
73599;SDS011;61877;48.246;9.220;2023-02-01T10:43:38;8.43;;;4.10;;
73599;SDS011;61877;48.246;9.220;2023-02-01T10:46:04;9.67;;;3.50;;
73599;SDS011;61877;48.246;9.220;2023-02-01T10:48:32;10.88;;;3.92;;
73599;SDS011;61877;48.246;9.220;2023-02-01T10:50:59;8.70;;;4.05;;
73599;SDS011;61877;48.246;9.220;2023-02-01T10:53:28;10.85;;;4.03;;
73599;SDS011;61877;48.246;9.220;2023-02-01T10:55:56;9.13;;;4.00;;
73599;SDS011;61877;48.246;9.220;2023-02-01T10:58:25;9.90;;;4.00;;
73599;SDS011;61877;48.246;9.220;2023-02-01T11:00:53;11.07;;;4.32;;
73599;SDS011;61877;48.246;9.220;2023-02-01T11:03:33;9.77;;;4.20;;
73599;SDS011;61877;48.246;9.220;2023-02-01T11:06:09;9.93;;;4.30;;
73599;SDS011;61877;48.246;9.220;2023-02-01T11:08:42;12.65;;;5.18;;
73599;SDS011;61877;48.246;9.220;2023-02-01T11:11:08;9.68;;;4.20;;
73599;SDS011;61877;48.246;9.220;2023-02-01T11:13:36;11.97;;;5.40;;
73599;SDS011;61877;48.246;9.220;2023-02-01T11:16:03;10.02;;;5.00;;
73599;SDS011;61877;48.246;9.220;2023-02-01T11:18:31;11.13;;;4.90;;
73599;SDS011;61877;48.246;9.220;2023-02-01T11:21:00;13.50;;;6.00;;
73599;SDS011;61877;48.246;9.220;2023-02-01T11:23:28;10.97;;;4.93;;
73599;SDS011;61877;48.246;9.220;2023-02-01T11:25:55;11.00;;;4.88;;
73599;SDS011;61877;48.246;9.220;2023-02-01T11:28:23;10.80;;;4.70;;
73599;SDS011;61877;48.246;9.220;2023-02-01T11:30:53;13.55;;;4.53;;
73599;SDS011;61877;48.246;9.220;2023-02-01T11:33:23;13.52;;;6.85;;
73599;SDS011;61877;48.246;9.220;2023-02-01T11:35:52;10.27;;;5.00;;
73599;SDS011;61877;48.246;9.220;2023-02-01T11:38:19;10.35;;;4.45;;
73599;SDS011;61877;48.246;9.220;2023-02-01T11:40:47;11.35;;;5.55;;
73599;SDS011;61877;48.246;9.220;2023-02-01T11:43:13;10.27;;;4.43;;
73599;SDS011;61877;48.246;9.220;2023-02-01T11:45:44;8.73;;;4.03;;
73599;SDS011;61877;48.246;9.220;2023-02-01T11:48:19;8.48;;;4.18;;
73599;SDS011;61877;48.246;9.220;2023-02-01T11:50:46;9.87;;;4.53;;
73599;SDS011;61877;48.246;9.220;2023-02-01T11:53:27;12.07;;;4.10;;
73599;SDS011;61877;48.246;9.220;2023-02-01T11:56:06;9.27;;;4.05;;
73599;SDS011;61877;48.246;9.220;2023-02-01T11:58:51;9.57;;;3.95;;
73599;SDS011;61877;48.246;9.220;2023-02-01T12:01:33;10.67;;;4.43;;
73599;SDS011;61877;48.246;9.220;2023-02-01T12:04:25;11.43;;;4.68;;
73599;SDS011;61877;48.246;9.220;2023-02-01T12:07:16;9.25;;;3.75;;
73599;SDS011;61877;48.246;9.220;2023-02-01T12:09:55;8.38;;;3.42;;
73599;SDS011;61877;48.246;9.220;2023-02-01T12:12:32;8.65;;;3.55;;
73599;SDS011;61877;48.246;9.220;2023-02-01T12:15:21;8.90;;;3.30;;
73599;SDS011;61877;48.246;9.220;2023-02-01T12:17:59;9.65;;;2.72;;
73599;SDS011;61877;48.246;9.220;2023-02-01T12:20:37;7.75;;;3.00;;
73599;SDS011;61877;48.246;9.220;2023-02-01T12:23:20;8.77;;;3.38;;
73599;SDS011;61877;48.246;9.220;2023-02-01T12:26:04;9.20;;;3.13;;
73599;SDS011;61877;48.246;9.220;2023-02-01T12:31:31;8.07;;;2.65;;
73599;SDS011;61877;48.246;9.220;2023-02-01T12:34:15;8.15;;;2.80;;
73599;SDS011;61877;48.246;9.220;2023-02-01T12:36:56;7.47;;;2.88;;
73599;SDS011;61877;48.246;9.220;2023-02-01T12:39:36;8.43;;;3.25;;
73599;SDS011;61877;48.246;9.220;2023-02-01T12:42:08;10.27;;;3.30;;
73599;SDS011;61877;48.246;9.220;2023-02-01T12:44:41;8.55;;;3.40;;
73599;SDS011;61877;48.246;9.220;2023-02-01T12:47:13;7.85;;;3.60;;
73599;SDS011;61877;48.246;9.220;2023-02-01T12:49:47;9.60;;;3.60;;
73599;SDS011;61877;48.246;9.220;2023-02-01T12:52:17;8.63;;;3.85;;
73599;SDS011;61877;48.246;9.220;2023-02-01T12:54:47;8.93;;;3.70;;
73599;SDS011;61877;48.246;9.220;2023-02-01T12:57:18;9.13;;;3.85;;
73599;SDS011;61877;48.246;9.220;2023-02-01T12:59:51;8.30;;;3.70;;
73599;SDS011;61877;48.246;9.220;2023-02-01T13:02:22;9.88;;;4.70;;
73599;SDS011;61877;48.246;9.220;2023-02-01T13:04:55;9.95;;;3.95;;
73599;SDS011;61877;48.246;9.220;2023-02-01T13:07:25;8.70;;;3.77;;
73599;SDS011;61877;48.246;9.220;2023-02-01T13:09:57;8.35;;;3.35;;
73599;SDS011;61877;48.246;9.220;2023-02-01T13:12:28;8.45;;;3.10;;
73599;SDS011;61877;48.246;9.220;2023-02-01T13:15:04;9.52;;;3.80;;
73599;SDS011;61877;48.246;9.220;2023-02-01T13:17:37;9.32;;;3.67;;
73599;SDS011;61877;48.246;9.220;2023-02-01T13:20:06;10.27;;;3.73;;
73599;SDS011;61877;48.246;9.220;2023-02-01T13:22:43;12.30;;;3.58;;
73599;SDS011;61877;48.246;9.220;2023-02-01T13:25:13;9.40;;;3.47;;
73599;SDS011;61877;48.246;9.220;2023-02-01T13:27:41;10.40;;;3.22;;
73599;SDS011;61877;48.246;9.220;2023-02-01T13:30:10;8.20;;;3.37;;
73599;SDS011;61877;48.246;9.220;2023-02-01T13:32:54;8.90;;;4.38;;
73599;SDS011;61877;48.246;9.220;2023-02-01T13:35:51;10.25;;;3.80;;
73599;SDS011;61877;48.246;9.220;2023-02-01T13:38:38;10.13;;;4.00;;
73599;SDS011;61877;48.246;9.220;2023-02-01T13:41:24;8.35;;;3.40;;
73599;SDS011;61877;48.246;9.220;2023-02-01T13:43:54;10.87;;;4.33;;
73599;SDS011;61877;48.246;9.220;2023-02-01T13:46:23;10.98;;;4.10;;
73599;SDS011;61877;48.246;9.220;2023-02-01T13:48:49;7.97;;;3.40;;
73599;SDS011;61877;48.246;9.220;2023-02-01T13:51:32;8.47;;;3.53;;
73599;SDS011;61877;48.246;9.220;2023-02-01T13:54:00;10.20;;;3.97;;
73599;SDS011;61877;48.246;9.220;2023-02-01T13:56:27;8.32;;;3.65;;
73599;SDS011;61877;48.246;9.220;2023-02-01T13:58:53;9.77;;;5.00;;
73599;SDS011;61877;48.246;9.220;2023-02-01T14:01:32;10.47;;;3.40;;
73599;SDS011;61877;48.246;9.220;2023-02-01T14:04:02;9.57;;;3.58;;
73599;SDS011;61877;48.246;9.220;2023-02-01T14:06:37;10.18;;;3.60;;
73599;SDS011;61877;48.246;9.220;2023-02-01T14:09:11;9.23;;;3.57;;
73599;SDS011;61877;48.246;9.220;2023-02-01T14:11:41;8.73;;;3.80;;
73599;SDS011;61877;48.246;9.220;2023-02-01T14:23:18;11.30;;;4.93;;
73599;SDS011;61877;48.246;9.220;2023-02-01T14:25:46;9.02;;;3.40;;
73599;SDS011;61877;48.246;9.220;2023-02-01T14:28:24;11.65;;;5.18;;
73599;SDS011;61877;48.246;9.220;2023-02-01T14:30:53;11.18;;;4.95;;
73599;SDS011;61877;48.246;9.220;2023-02-01T14:33:22;9.70;;;3.70;;
73599;SDS011;61877;48.246;9.220;2023-02-01T14:35:58;11.37;;;3.80;;
73599;SDS011;61877;48.246;9.220;2023-02-01T14:38:30;10.43;;;4.30;;
73599;SDS011;61877;48.246;9.220;2023-02-01T14:40:56;10.88;;;3.92;;
73599;SDS011;61877;48.246;9.220;2023-02-01T14:47:02;9.57;;;4.10;;
73599;SDS011;61877;48.246;9.220;2023-02-01T14:49:56;10.40;;;4.10;;
73599;SDS011;61877;48.246;9.220;2023-02-01T14:52:31;10.57;;;4.05;;
73599;SDS011;61877;48.246;9.220;2023-02-01T14:55:00;12.63;;;4.70;;
73599;SDS011;61877;48.246;9.220;2023-02-01T14:57:30;12.18;;;6.00;;
73599;SDS011;61877;48.246;9.220;2023-02-01T14:59:59;10.30;;;3.53;;
73599;SDS011;61877;48.246;9.220;2023-02-01T15:02:30;9.43;;;3.45;;
73599;SDS011;61877;48.246;9.220;2023-02-01T15:05:00;8.90;;;3.63;;
73599;SDS011;61877;48.246;9.220;2023-02-01T15:07:25;10.07;;;4.50;;
73599;SDS011;61877;48.246;9.220;2023-02-01T15:09:52;11.02;;;4.18;;
73599;SDS011;61877;48.246;9.220;2023-02-01T15:12:22;14.38;;;4.55;;
73599;SDS011;61877;48.246;9.220;2023-02-01T15:15:08;10.95;;;4.63;;
73599;SDS011;61877;48.246;9.220;2023-02-01T15:17:36;11.73;;;5.78;;
73599;SDS011;61877;48.246;9.220;2023-02-01T15:20:04;9.57;;;4.80;;
73599;SDS011;61877;48.246;9.220;2023-02-01T15:22:38;10.05;;;4.68;;
73599;SDS011;61877;48.246;9.220;2023-02-01T15:25:20;10.75;;;4.00;;
73599;SDS011;61877;48.246;9.220;2023-02-01T15:27:48;10.70;;;4.43;;
73599;SDS011;61877;48.246;9.220;2023-02-01T15:30:24;10.18;;;4.40;;
73599;SDS011;61877;48.246;9.220;2023-02-01T15:32:52;12.07;;;4.57;;
73599;SDS011;61877;48.246;9.220;2023-02-01T15:35:40;11.30;;;4.20;;